MMZC

General Leobardo C. Ruiz International Airport

Zacatecas, Mexico
TAF MMZC 162325Z 1700/1806 10015KT P6SM BKN030 TX28/1721Z TN11/1713Z TEMPO 1700/1704 VC TSRA BKN030CB FM170600 12010KT P6SM SCT030 BKN200 FM171200 00000KT P6SM SCT040 FM171800 22010KT P6SM SCT030CB SCT200 SCT030CB TEMPO 1721/1801 5SM TSRA BKN030CB
Issued Valid From Valid To
Jul-16 @ 23:25 UTC
(59 minutes ago)
Jul-17 @ 00:00 UTC
(24 minutes ago)
Jul-18 @ 06:00 UTC
(-1 days ago)
Jul-17 @ 00:00 to Jul-17 @ 06:00
TAF MMZC 162325Z 1700/1806 10015KT P6SM BKN030 TX28/1721Z TN11/1713Z
Wind Visibility Clouds
100° at 15 knots Greater than 6 miles
  • Broken at 3,000' AGL
Temporary Jul-17 @ 00:00 to Jul-17 @ 04:00
TEMPO 1700/1704 VC TSRA BKN030CB
Clouds Conditions
  • Broken at 3,000' AGL
  • Thunderstorm
  • Rain
From Jul-17 @ 06:00 to Jul-17 @ 12:00
FM170600 12010KT P6SM SCT030 BKN200
Wind Visibility Clouds
120° at 10 knots Greater than 6 miles
  • Scattered at 3,000' AGL
  • Broken at 20,000' AGL
From Jul-17 @ 12:00 to Jul-17 @ 18:00
FM171200 00000KT P6SM SCT040
Visibility Clouds
Greater than 6 miles
  • Scattered at 4,000' AGL
From Jul-17 @ 18:00 to Jul-18 @ 06:00
FM171800 22010KT P6SM SCT030CB SCT200 SCT030CB
Wind Visibility Clouds
220° at 10 knots Greater than 6 miles
  • Scattered at 3,000' AGL
  • Scattered at 20,000' AGL
  • Scattered at 3,000' AGL
Temporary Jul-17 @ 21:00 to Jul-18 @ 01:00
TEMPO 1721/1801 5SM TSRA BKN030CB
Visibility Clouds Conditions
5 miles
  • Broken at 3,000' AGL
  • Thunderstorm
  • Rain
TAF MMZC 162325Z 1700/1806 10015KT P6SM BKN030 TX28/1721Z TN11/1713Z TEMPO 1700/1704 VC TSRA BKN030CB FM170600 12010KT P6SM SCT030 BKN200 FM171200 00000KT P6SM SCT040 FM171800 22010KT P6SM SCT030CB SCT200 SCT030CB TEMPO 1721/1801 5SM TSRA BKN030CB
Issued Jul-16 @ 23:25 UTC
(59 minutes ago)
Valid From Jul-17 @ 00:00 UTC
(24 minutes ago)
Valid To Jul-18 @ 06:00 UTC
(-1 days ago)
Jul-17 @ 00:00 - Jul-17 @ 06:00
Wind Visibility
100° at 15 knots Greater than 6 miles
Clouds
  • Broken at 3,000' AGL
Temporary Jul-17 @ 00:00 - Jul-17 @ 04:00
Clouds
  • Broken at 3,000' AGL
Conditions
  • Thunderstorm
  • Rain
From Jul-17 @ 06:00 - Jul-17 @ 12:00
Wind Visibility
120° at 10 knots Greater than 6 miles
Clouds
  • Scattered at 3,000' AGL
  • Broken at 20,000' AGL
From Jul-17 @ 12:00 - Jul-17 @ 18:00
Clouds
  • Scattered at 4,000' AGL
From Jul-17 @ 18:00 - Jul-18 @ 06:00
Wind Visibility
220° at 10 knots Greater than 6 miles
Clouds
  • Scattered at 3,000' AGL
  • Scattered at 20,000' AGL
  • Scattered at 3,000' AGL
Temporary Jul-17 @ 21:00 - Jul-18 @ 01:00
Clouds
  • Broken at 3,000' AGL
Conditions
  • Thunderstorm
  • Rain